Naples, NY

5:57 PM EDT on August 30, 2016 (GMT -0400)
Canandaigua Lake | | Change Station

Elev 695 ft 42.71 °N, 77.34 °W | Updated 2 seconds ago

Clear
Clear
81.3 °F
Feels Like 83 °F
N
1.8
Wind Variable Wind from West
Gusts 2.5 mph

Today
High -- | Low -- °F
--% Chance of Precip.
Yesterday
High -- | Low -- °F
Precip. -- in
Pressure 30.08 in
Visibility 10.0 miles
Clouds Clear
Heat Index 83 °F
Dew Point 63 °F
Humidity 54%
Rainfall Not available.
Snow Depth Not available.
6:32 AM 7:46 PM
Waning Crescent, 2% visible
METAR KDSV 302154Z AUTO 00000KT 10SM CLR 28/14 A3006 RMK AO2 SLP185 T02830144
Pressure 30.08 in
Visibility 10.0 miles
Clouds Clear
Heat Index 83 °F
Dew Point 63 °F
Humidity 54%
Rainfall Not available.
Snow Depth Not available.
6:32 AM 7:46 PM
Waning Crescent, 2% visible
METAR KDSV 302154Z AUTO 00000KT 10SM CLR 28/14 A3006 RMK AO2 SLP185 T02830144

10-Day Weather Forecast

Almanac

Astronomy

Aug. 30, 2016 Rise Set
Actual Time
Civil Twilight
Nautical Twilight
Astronomical Twilight
Moon
Length of Visible Light
Length of Day
Tomorrow will be .
, % of the Moon is Illuminated

Today's Extremes

State Highs State Lows

Community

WunderPhotos

Upload Photos

1,935,901 photos uploaded!

WunderBlog® & News

Nearby

Air Quality

  Air Quality AQ Index Pollutant
Not available.

Snow Depth

Station Depth Elevation

Earthquake Activity

City Distance Mag. Time & Date
Minimum magnitude displayed is 2.5.

Coastal Water Temperatures

Place Temperature

Stations

Nearby Weather Stations

Station Location Temp. Windchill Dew Point Humidity Wind Precip. Elev Updated Type
                   

Watches & Warnings

There are currently no watches in effect.